Startpagina
METAR-TAF:

METAR-TAF

Vliegvelden :

Shawbury, Engeland

breedte: 52-48N, lengte: 002-40W, hoogte: 76 m

Actueel weer

Dit bericht is 59 minuten geleden gemaakt, om 19:50 UTC
Wind 5 kt uit het zuiden
Temperatuur 5°C
Vochtigheid 75%
Druk 1022 hPa
Zicht 10 km of meer

METAR: EGOS 231950Z AUTO 19005KT 9999 OVC140/// 05/01 Q1022

Tijdstip: 20:49 (20:49 UTC)


TAF: ontbreekt

Waarnemingen en weersverwachtingen van meer dan 4000 vliegvelden (METAR en TAF).

De beschikbare stations zijn de gele en rode punten op de kaart.

Ga met uw muis naar het station om de naam te zien.

Klik dan om waarnemingen en weersverwachtingen te zien.

kaart wijzigen: klik op de groene knoppen met een zwart kruis om in te zoomen, op de groene knop met een streepje om uit te zoomen of op de groene pijlen voor aangrenzende kaarten.


METAR-TAF: